createdAt,value
2023-03-08T00:00:48.676Z,99351.25
2023-03-08T00:03:15.996Z,99365.25
2023-03-08T00:05:44.281Z,99368.78
2023-03-08T00:08:11.398Z,99369.63
2023-03-08T00:10:38.510Z,99373.19
2023-03-08T00:13:05.278Z,99372.31
2023-03-08T00:15:32.038Z,99378.41
2023-03-08T00:17:58.828Z,99374.94
2023-03-08T00:20:25.603Z,99385.44
2023-03-08T00:22:52.493Z,99380.19
2023-03-08T00:25:19.306Z,99382.81
2023-03-08T00:27:46.205Z,99388.94
2023-03-08T00:30:13.760Z,99389.78
2023-03-08T00:32:40.642Z,99393.31
2023-03-08T00:35:08.034Z,99382.84
2023-03-08T00:37:34.846Z,99388.06
2023-03-08T00:40:01.699Z,99394.19
2023-03-08T00:42:28.503Z,99390.72
2023-03-08T00:44:55.272Z,99395.09
2023-03-08T00:47:22.060Z,99399.47
2023-03-08T00:49:48.824Z,99395.06
2023-03-08T00:52:15.649Z,99395.06
2023-03-08T00:54:42.493Z,99393.34
2023-03-08T00:57:09.272Z,99393.34
2023-03-08T00:59:36.168Z,99402.06
2023-03-08T01:02:03.039Z,99392.44
2023-03-08T01:04:29.875Z,99396.84
2023-03-08T01:06:56.620Z,99402.06
2023-03-08T01:09:23.379Z,99396.84
2023-03-08T01:11:50.157Z,99399.47
2023-03-08T01:14:16.908Z,99406.44
2023-03-08T01:16:43.717Z,99400.31
2023-03-08T01:19:11.572Z,99396.81
2023-03-08T01:21:38.412Z,99395.06
2023-03-08T01:24:05.934Z,99391.56
2023-03-08T01:26:32.749Z,99393.28
2023-03-08T01:28:59.672Z,99399.44
2023-03-08T01:31:29.718Z,99391.56
2023-03-08T01:33:57.605Z,99392.41
2023-03-08T01:36:26.722Z,99394.16
2023-03-08T01:38:53.794Z,99391.56
2023-03-08T01:41:27.325Z,99384.59
2023-03-08T01:43:55.035Z,99388.97
2023-03-08T01:46:33.615Z,99381.94
2023-03-08T01:49:23.067Z,99377.59
2023-03-08T01:52:11.369Z,99376.72
2023-03-08T01:54:51.538Z,99378.47
2023-03-08T01:57:24.139Z,99368.88
2023-03-08T01:59:53.900Z,99374.09
2023-03-08T02:02:28.267Z,99363.63
2023-03-08T02:04:55.277Z,99370.63
2023-03-08T02:07:22.050Z,99368.00
2023-03-08T02:09:49.448Z,99368.88
2023-03-08T02:12:16.652Z,99365.38
2023-03-08T02:14:44.588Z,99357.50
2023-03-08T02:17:12.186Z,99368.88
2023-03-08T02:19:46.450Z,99374.09
2023-03-08T02:22:15.915Z,99367.06
2023-03-08T02:24:43.153Z,99368.81
2023-03-08T02:27:17.586Z,99371.44
2023-03-08T02:29:44.559Z,99368.78
2023-03-08T02:32:11.358Z,99363.53
2023-03-08T02:34:38.178Z,99359.19
2023-03-08T02:37:04.952Z,99361.81
2023-03-08T02:39:31.702Z,99366.19
2023-03-08T02:41:58.456Z,99366.19
2023-03-08T02:44:25.332Z,99363.56
2023-03-08T02:46:52.795Z,99362.72
2023-03-08T02:49:19.753Z,99360.94
2023-03-08T02:51:46.535Z,99354.84
2023-03-08T02:54:15.348Z,99358.34
2023-03-08T02:56:43.299Z,99358.31
2023-03-08T02:59:10.085Z,99348.69
2023-03-08T03:01:37.310Z,99343.44
2023-03-08T03:04:04.213Z,99344.28
2023-03-08T03:06:31.042Z,99341.66
2023-03-08T03:08:57.871Z,99339.88
2023-03-08T03:11:24.701Z,99344.19
2023-03-08T03:13:57.539Z,99351.16
2023-03-08T03:16:25.150Z,99345.00
2023-03-08T03:18:56.564Z,99346.69
2023-03-08T03:21:24.115Z,99344.88
2023-03-08T03:23:51.051Z,99350.09
2023-03-08T03:26:22.008Z,99350.91
2023-03-08T03:28:49.436Z,99353.50
2023-03-08T03:31:19.787Z,99356.09
2023-03-08T03:33:47.321Z,99356.06
2023-03-08T03:36:18.443Z,99357.78
2023-03-08T03:38:46.185Z,99354.25
2023-03-08T03:41:16.678Z,99350.75
2023-03-08T03:43:44.442Z,99350.72
2023-03-08T03:46:14.806Z,99343.69
2023-03-08T03:48:41.622Z,99348.94
2023-03-08T03:51:16.257Z,99360.25
2023-03-08T03:53:43.728Z,99357.63
2023-03-08T03:56:20.127Z,99353.28
2023-03-08T03:58:47.410Z,99352.38
2023-03-08T04:01:29.854Z,99357.59
2023-03-08T04:03:57.534Z,99355.81
2023-03-08T04:06:33.014Z,99361.06
2023-03-08T04:09:07.248Z,99355.81
2023-03-08T04:11:37.641Z,99356.66
2023-03-08T04:14:05.378Z,99354.06
2023-03-08T04:16:35.576Z,99347.03
2023-03-08T04:19:06.809Z,99361.00
2023-03-08T04:21:33.958Z,99360.97
2023-03-08T04:24:01.035Z,99359.22
2023-03-08T04:26:28.129Z,99366.19
2023-03-08T04:28:55.194Z,99367.91
2023-03-08T04:31:25.667Z,99363.53
2023-03-08T04:33:53.221Z,99370.50
2023-03-08T04:36:21.063Z,99366.13
2023-03-08T04:38:48.942Z,99362.59
2023-03-08T04:41:16.464Z,99364.34
2023-03-08T04:43:55.842Z,99366.94
2023-03-08T04:46:26.723Z,99360.81
2023-03-08T04:48:55.583Z,99351.25
2023-03-08T04:51:24.795Z,99354.75
2023-03-08T04:53:51.602Z,99357.41
2023-03-08T04:56:19.298Z,99345.22
2023-03-08T04:58:46.221Z,99357.44
2023-03-08T05:01:19.772Z,99358.34
2023-03-08T05:03:49.437Z,99363.63
2023-03-08T05:06:16.240Z,99353.16
2023-03-08T05:08:43.750Z,99351.47
2023-03-08T05:11:19.003Z,99348.03
2023-03-08T05:13:46.119Z,99354.16
2023-03-08T05:16:13.398Z,99355.03
2023-03-08T05:18:40.220Z,99359.47
2023-03-08T05:21:12.341Z,99362.09
2023-03-08T05:23:39.177Z,99365.66
2023-03-08T05:26:08.238Z,99363.91
2023-03-08T05:28:39.431Z,99356.13
2023-03-08T05:31:19.291Z,99354.44
2023-03-08T05:33:49.825Z,99345.69
2023-03-08T05:36:17.770Z,99343.13
2023-03-08T05:38:45.018Z,99335.28
2023-03-08T05:41:15.950Z,99327.44
2023-03-08T05:43:42.802Z,99337.09
2023-03-08T05:46:17.650Z,99323.16
2023-03-08T05:48:45.512Z,99330.16
2023-03-08T05:51:15.666Z,99320.56
2023-03-08T05:53:43.345Z,99313.56
2023-03-08T05:56:20.204Z,99318.81
2023-03-08T05:58:48.349Z,99323.16
2023-03-08T06:01:24.796Z,99313.56
2023-03-08T06:03:54.616Z,99310.06
2023-03-08T06:06:26.043Z,99320.53
2023-03-08T06:08:53.898Z,99312.63
2023-03-08T06:11:20.707Z,99316.13
2023-03-08T06:13:47.538Z,99316.94
2023-03-08T06:16:14.653Z,99321.31
2023-03-08T06:18:42.673Z,99323.06
2023-03-08T06:21:14.639Z,99319.56
2023-03-08T06:23:41.698Z,99322.19
2023-03-08T06:26:09.424Z,99328.28
2023-03-08T06:28:36.901Z,99321.28
2023-03-08T06:31:04.405Z,99326.50
2023-03-08T06:33:33.121Z,99319.56
2023-03-08T06:36:03.407Z,99323.94
2023-03-08T06:38:33.545Z,99333.56
2023-03-08T06:41:01.272Z,99333.63
2023-03-08T06:43:28.776Z,99328.41
2023-03-08T06:45:56.000Z,99337.16
2023-03-08T06:48:22.926Z,99328.44
2023-03-08T06:50:49.775Z,99330.25
2023-03-08T06:53:17.122Z,99333.78
2023-03-08T06:55:43.891Z,99324.19
2023-03-08T06:58:10.665Z,99319.84
2023-03-08T07:00:37.476Z,99321.63
2023-03-08T07:03:04.317Z,99319.00
2023-03-08T07:05:31.411Z,99313.75
2023-03-08T07:07:58.588Z,99321.63
2023-03-08T07:10:25.356Z,99316.41
2023-03-08T07:12:52.433Z,99319.94
2023-03-08T07:15:22.854Z,99315.56
2023-03-08T07:17:52.141Z,99320.84
2023-03-08T07:20:20.453Z,99319.97
2023-03-08T07:22:47.681Z,99319.13
2023-03-08T07:25:17.054Z,99310.38
2023-03-08T07:27:44.097Z,99293.78
2023-03-08T07:30:13.980Z,99294.69
2023-03-08T07:32:44.948Z,99288.59
2023-03-08T07:35:14.988Z,99288.59
2023-03-08T07:37:45.851Z,99279.84
2023-03-08T07:40:16.173Z,99286.00
2023-03-08T07:42:44.173Z,99283.38
2023-03-08T07:45:14.947Z,99274.63
2023-03-08T07:47:41.804Z,99279.88
2023-03-08T07:50:09.693Z,99267.63
2023-03-08T07:52:36.483Z,99271.09
2023-03-08T07:55:03.335Z,99269.34
2023-03-08T07:57:30.155Z,99265.00
2023-03-08T07:59:56.933Z,99264.97
2023-03-08T08:02:23.689Z,99257.13
2023-03-08T08:04:50.780Z,99259.72
2023-03-08T08:07:17.924Z,99258.84
2023-03-08T08:09:44.755Z,99264.97
2023-03-08T08:12:11.640Z,99256.19
2023-03-08T08:14:38.517Z,99264.94
2023-03-08T08:17:05.785Z,99267.56
2023-03-08T08:19:32.737Z,99257.03
2023-03-08T08:22:00.576Z,99252.63
2023-03-08T08:24:28.639Z,99258.75
2023-03-08T08:26:55.495Z,99261.38
2023-03-08T08:29:22.302Z,99248.25
2023-03-08T08:31:49.180Z,99253.47
2023-03-08T08:34:15.996Z,99250.81
2023-03-08T08:36:42.770Z,99250.84
2023-03-08T08:39:09.545Z,99256.06
2023-03-08T08:41:36.290Z,99249.06
2023-03-08T08:44:04.551Z,99252.56
2023-03-08T08:46:33.998Z,99249.03
2023-03-08T08:49:02.298Z,99253.44
2023-03-08T08:51:29.129Z,99246.41
2023-03-08T08:53:55.934Z,99244.66
2023-03-08T08:56:30.397Z,99251.66
2023-03-08T08:59:00.838Z,99241.16
2023-03-08T09:01:31.504Z,99245.53
2023-03-08T09:03:59.417Z,99249.03
2023-03-08T09:06:29.120Z,99247.28
2023-03-08T09:08:58.533Z,99242.88
2023-03-08T09:11:27.505Z,99239.38
2023-03-08T09:13:54.984Z,99249.88
2023-03-08T09:16:31.297Z,99247.22
2023-03-08T09:19:00.322Z,99236.69
2023-03-08T09:21:28.260Z,99240.19
2023-03-08T09:23:56.204Z,99227.03
2023-03-08T09:26:23.721Z,99215.63
2023-03-08T09:28:50.540Z,99212.09
2023-03-08T09:31:18.204Z,99210.31
2023-03-08T09:33:49.209Z,99211.13
2023-03-08T09:36:16.431Z,99199.72
2023-03-08T09:38:43.418Z,99193.56
2023-03-08T09:41:45.612Z,99189.16
2023-03-08T09:44:43.842Z,99195.31
2023-03-08T09:48:05.378Z,99186.50
2023-03-08T09:50:45.194Z,99183.81
2023-03-08T09:53:32.085Z,99179.34
2023-03-08T09:56:12.054Z,99173.19
2023-03-08T09:58:49.680Z,99175.81
2023-03-08T10:01:45.538Z,99167.00
2023-03-08T10:05:06.144Z,99163.44
2023-03-08T10:08:07.393Z,99167.78
2023-03-08T10:11:03.418Z,99158.13
2023-03-08T10:13:43.583Z,99141.44
2023-03-08T10:16:33.517Z,99130.88
2023-03-08T10:19:28.750Z,99128.22
2023-03-08T10:21:57.575Z,99135.28
2023-03-08T10:24:36.392Z,99123.84
2023-03-08T10:27:23.396Z,99130.88
2023-03-08T10:29:53.068Z,99130.00
2023-03-08T10:32:21.127Z,99121.22
2023-03-08T10:34:48.798Z,99115.91
2023-03-08T10:37:16.080Z,99117.59
2023-03-08T10:39:54.596Z,99108.81
2023-03-08T10:42:27.597Z,99110.56
2023-03-08T10:45:00.601Z,99119.31
2023-03-08T10:47:31.773Z,99110.53
2023-03-08T10:50:13.893Z,99107.78
2023-03-08T10:52:41.418Z,99098.97
2023-03-08T10:55:15.946Z,99090.13
2023-03-08T10:57:55.020Z,99091.00
2023-03-08T11:00:44.342Z,99090.13
2023-03-08T11:03:15.187Z,99082.25
2023-03-08T11:05:55.980Z,99083.13
2023-03-08T11:08:27.418Z,99074.31
2023-03-08T11:11:20.519Z,99073.41
2023-03-08T11:13:50.100Z,99071.66
2023-03-08T11:16:56.077Z,99069.00
2023-03-08T11:19:59.871Z,99068.13
2023-03-08T11:22:49.071Z,99068.13
2023-03-08T11:25:28.900Z,99069.88
2023-03-08T11:28:22.175Z,99075.94
2023-03-08T11:31:21.147Z,99073.19
2023-03-08T11:34:23.403Z,99074.81
2023-03-08T11:37:01.991Z,99056.25
2023-03-08T11:40:22.259Z,99064.97
2023-03-08T11:43:34.666Z,99065.75
2023-03-08T11:46:07.783Z,99067.44
2023-03-08T11:49:02.133Z,99060.38
2023-03-08T11:51:54.797Z,99062.25
2023-03-08T11:55:05.239Z,99062.25
2023-03-08T11:57:45.023Z,99053.47
2023-03-08T12:00:26.472Z,99055.22
2023-03-08T12:02:54.865Z,99057.00
2023-03-08T12:05:34.402Z,99057.84
2023-03-08T12:08:20.406Z,99056.97
2023-03-08T12:11:01.804Z,99049.94
2023-03-08T12:13:39.294Z,99058.78
2023-03-08T12:16:27.363Z,99049.19
2023-03-08T12:19:31.031Z,99049.28
2023-03-08T12:22:43.780Z,99045.78
2023-03-08T12:25:22.651Z,99051.97
2023-03-08T12:27:54.521Z,99055.44
2023-03-08T12:30:42.986Z,99046.59
2023-03-08T12:33:14.054Z,99043.00
2023-03-08T12:35:54.870Z,99042.06
2023-03-08T12:38:21.644Z,99046.44
2023-03-08T12:40:52.146Z,99047.31
2023-03-08T12:43:21.958Z,99040.22
2023-03-08T12:46:01.257Z,99034.00
2023-03-08T12:48:47.885Z,99039.28
2023-03-08T12:51:16.218Z,99043.69
2023-03-08T12:53:49.068Z,99042.88
2023-03-08T12:56:48.324Z,99040.34
2023-03-08T12:59:14.952Z,99034.28
2023-03-08T13:01:44.914Z,99029.97
2023-03-08T13:04:43.219Z,99031.81
2023-03-08T13:07:25.636Z,99035.47
2023-03-08T13:10:04.875Z,99030.31
2023-03-08T13:13:01.908Z,99031.28
2023-03-08T13:15:28.807Z,99029.63
2023-03-08T13:18:06.235Z,99034.91
2023-03-08T13:20:56.905Z,99038.50
2023-03-08T13:23:41.861Z,99031.53
2023-03-08T13:26:51.017Z,99021.91
2023-03-08T13:29:20.597Z,99029.81
2023-03-08T13:31:49.643Z,99029.78
2023-03-08T13:34:30.990Z,99020.09
2023-03-08T13:36:58.662Z,99021.91
2023-03-08T13:39:29.014Z,99024.53
2023-03-08T13:42:11.390Z,99021.03
2023-03-08T13:44:38.457Z,99024.59
2023-03-08T13:47:25.801Z,99013.19
2023-03-08T13:49:55.328Z,99017.59
2023-03-08T13:52:31.329Z,99021.13
2023-03-08T13:55:04.857Z,99017.63
2023-03-08T13:57:36.459Z,99021.13
2023-03-08T14:00:36.025Z,99023.78
2023-03-08T14:03:06.579Z,99023.03
2023-03-08T14:05:45.551Z,99033.53
2023-03-08T14:08:27.754Z,99018.63
2023-03-08T14:11:01.283Z,99036.19
2023-03-08T14:13:33.109Z,99029.25
2023-03-08T14:16:04.021Z,99020.53
2023-03-08T14:18:43.610Z,99016.25
2023-03-08T14:21:22.433Z,99014.59
2023-03-08T14:23:57.513Z,99007.72
2023-03-08T14:26:40.266Z,98999.94
2023-03-08T14:29:21.977Z,99013.13
2023-03-08T14:32:24.778Z,99006.16
2023-03-08T14:34:51.573Z,98996.56
2023-03-08T14:37:30.366Z,99000.94
2023-03-08T14:40:26.707Z,98992.22
2023-03-08T14:43:02.308Z,99000.13
2023-03-08T14:45:41.350Z,98987.88
2023-03-08T14:48:29.916Z,98983.50
2023-03-08T14:51:27.578Z,98997.50
2023-03-08T14:54:05.692Z,98998.44
2023-03-08T14:56:33.470Z,98983.59
2023-03-08T14:59:05.299Z,98981.81
2023-03-08T15:01:36.079Z,98983.63
2023-03-08T15:04:04.978Z,98979.25
2023-03-08T15:06:34.820Z,98976.66
2023-03-08T15:09:03.857Z,98978.41
2023-03-08T15:11:32.132Z,98974.94
2023-03-08T15:13:59.723Z,98959.19
2023-03-08T15:16:27.370Z,98960.09
2023-03-08T15:18:54.446Z,98946.06
2023-03-08T15:21:25.738Z,98947.84
2023-03-08T15:23:53.105Z,98945.25
2023-03-08T15:26:31.465Z,98938.28
2023-03-08T15:28:58.892Z,98938.34
2023-03-08T15:31:26.029Z,98938.34
2023-03-08T15:33:52.792Z,98931.38
2023-03-08T15:36:19.859Z,98936.69
2023-03-08T15:38:46.903Z,98936.69
2023-03-08T15:41:15.582Z,98936.69
2023-03-08T15:43:42.718Z,98931.41
2023-03-08T15:46:14.213Z,98937.56
2023-03-08T15:48:41.941Z,98943.69
2023-03-08T15:51:20.746Z,98934.03
2023-03-08T15:53:49.111Z,98932.28
2023-03-08T15:56:16.755Z,98941.94
2023-03-08T15:58:43.582Z,98942.81
2023-03-08T16:01:11.769Z,98941.94
2023-03-08T16:03:38.608Z,98941.94
2023-03-08T16:06:11.371Z,98943.69
2023-03-08T16:08:39.352Z,98947.22
2023-03-08T16:11:11.358Z,98952.50
2023-03-08T16:13:38.125Z,98943.75
2023-03-08T16:16:06.582Z,98948.13
2023-03-08T16:18:35.182Z,98954.25
2023-03-08T16:21:08.326Z,98947.28
2023-03-08T16:23:36.013Z,98953.44
2023-03-08T16:26:16.149Z,98944.72
2023-03-08T16:28:46.249Z,98947.34
2023-03-08T16:31:14.301Z,98949.09
2023-03-08T16:33:41.189Z,98943.88
2023-03-08T16:36:08.224Z,98950.91
2023-03-08T16:38:35.032Z,98958.78
2023-03-08T16:41:12.767Z,98960.56
2023-03-08T16:43:49.226Z,98961.44
2023-03-08T16:46:20.600Z,98961.44
2023-03-08T16:48:49.793Z,98958.84
2023-03-08T16:51:19.283Z,98964.09
2023-03-08T16:53:46.286Z,98955.38
2023-03-08T16:56:26.509Z,98956.25
2023-03-08T16:58:55.992Z,98958.00
2023-03-08T17:01:23.392Z,98958.91
2023-03-08T17:03:50.997Z,98949.28
2023-03-08T17:06:22.664Z,98956.28
2023-03-08T17:08:49.806Z,98950.19
2023-03-08T17:11:22.816Z,98953.72
2023-03-08T17:13:51.924Z,98958.13
2023-03-08T17:16:21.070Z,98954.66
2023-03-08T17:18:49.184Z,98952.94
2023-03-08T17:21:17.128Z,98951.19
2023-03-08T17:23:45.087Z,98954.69
2023-03-08T17:26:14.126Z,98966.94
2023-03-08T17:28:41.599Z,98966.06
2023-03-08T17:31:11.897Z,98960.84
2023-03-08T17:33:39.508Z,98959.97
2023-03-08T17:36:07.375Z,98961.69
2023-03-08T17:38:34.742Z,98966.97
2023-03-08T17:41:06.569Z,98969.59
2023-03-08T17:43:33.428Z,98963.47
2023-03-08T17:46:11.432Z,98968.72
2023-03-08T17:48:38.380Z,98954.75
2023-03-08T17:51:12.502Z,98954.75
2023-03-08T17:53:39.384Z,98968.72
2023-03-08T17:56:13.303Z,98971.34
2023-03-08T17:58:40.819Z,98969.59
2023-03-08T18:01:18.210Z,98970.47
2023-03-08T18:03:45.694Z,98964.34
2023-03-08T18:06:42.567Z,98959.13
2023-03-08T18:09:16.059Z,98958.28
2023-03-08T18:11:43.077Z,98955.66
2023-03-08T18:15:04.360Z,98937.31
2023-03-08T18:17:31.143Z,98939.03
2023-03-08T18:19:57.986Z,98932.03
2023-03-08T18:22:25.964Z,98930.31
2023-03-08T18:24:52.773Z,98931.19
2023-03-08T18:27:19.809Z,98925.94
2023-03-08T18:29:46.588Z,98923.31
2023-03-08T18:32:13.398Z,98933.78
2023-03-08T18:34:40.320Z,98935.56
2023-03-08T18:37:07.068Z,98946.03
2023-03-08T18:39:33.831Z,98937.31
2023-03-08T18:42:02.052Z,98938.19
2023-03-08T18:44:28.984Z,98937.31
2023-03-08T18:46:55.789Z,98936.44
2023-03-08T18:49:22.688Z,98932.09
2023-03-08T18:51:49.659Z,98927.72
2023-03-08T18:54:20.427Z,98921.63
2023-03-08T19:00:26.931Z,98928.63
2023-03-08T19:02:53.711Z,98928.63
2023-03-08T19:05:20.518Z,98929.50
2023-03-08T19:07:47.265Z,98922.53
2023-03-08T19:10:16.680Z,98917.28
2023-03-08T19:12:43.928Z,98913.81
2023-03-08T19:15:11.428Z,98921.69
2023-03-08T19:17:38.228Z,98926.06
2023-03-08T19:20:06.523Z,98912.94
2023-03-08T19:22:33.450Z,98914.69
2023-03-08T19:25:00.959Z,98905.94
2023-03-08T19:27:28.916Z,98911.19
2023-03-08T19:29:55.726Z,98902.44
2023-03-08T19:32:22.655Z,98908.56
2023-03-08T19:34:49.535Z,98913.81
2023-03-08T19:37:16.402Z,98915.56
2023-03-08T19:39:43.610Z,98905.91
2023-03-08T19:42:14.999Z,98905.06
2023-03-08T19:44:42.309Z,98903.31
2023-03-08T19:47:09.523Z,98902.44
2023-03-08T19:49:49.536Z,98905.94
2023-03-08T19:52:23.924Z,98904.19
2023-03-08T19:54:50.758Z,98905.94
2023-03-08T19:57:17.533Z,98909.44
2023-03-08T19:59:44.295Z,98903.31
2023-03-08T20:02:12.799Z,98905.91
2023-03-08T20:04:39.620Z,98911.16
2023-03-08T20:07:06.391Z,98907.66
2023-03-08T20:09:42.168Z,98897.16
2023-03-08T20:12:09.624Z,98894.56
2023-03-08T20:14:36.766Z,98904.16
2023-03-08T20:17:05.037Z,98908.50
2023-03-08T20:19:33.940Z,98911.13
2023-03-08T20:22:01.241Z,98900.66
2023-03-08T20:24:58.385Z,98911.13
2023-03-08T20:27:25.153Z,98905.00
2023-03-08T20:29:53.096Z,98908.50
2023-03-08T20:32:19.887Z,98906.78
2023-03-08T20:34:46.643Z,98914.63
2023-03-08T20:37:13.427Z,98915.50
2023-03-08T20:39:40.172Z,98925.13
2023-03-08T20:42:07.015Z,98925.13
2023-03-08T20:44:33.833Z,98930.34
2023-03-08T20:47:01.348Z,98933.84
2023-03-08T20:49:28.604Z,98934.72
2023-03-08T20:51:55.395Z,98941.69
2023-03-08T20:54:22.197Z,98937.34
2023-03-08T20:56:50.285Z,98907.63
2023-03-08T20:59:20.201Z,98905.88
2023-03-08T21:01:47.006Z,98900.66
2023-03-08T21:04:13.903Z,98909.38
2023-03-08T21:06:40.977Z,98922.47
2023-03-08T21:09:07.892Z,98932.06
2023-03-08T21:11:34.643Z,98932.06
2023-03-08T21:14:01.585Z,98927.72
2023-03-08T21:16:29.483Z,98906.78
2023-03-08T21:19:03.845Z,98889.28
2023-03-08T21:21:35.539Z,98881.44
2023-03-08T21:24:12.176Z,98886.66
2023-03-08T21:26:39.028Z,98872.72
2023-03-08T21:29:09.577Z,98863.09
2023-03-08T21:31:40.252Z,98867.47
2023-03-08T21:34:08.211Z,98874.44
2023-03-08T21:36:37.901Z,98873.59
2023-03-08T21:39:06.926Z,98872.72
2023-03-08T21:41:37.621Z,98870.97
2023-03-08T21:44:09.333Z,98884.09
2023-03-08T21:46:38.310Z,98878.84
2023-03-08T21:49:05.691Z,98868.34
2023-03-08T21:51:33.467Z,98862.25
2023-03-08T21:54:01.068Z,98849.13
2023-03-08T21:56:27.958Z,98841.28
2023-03-08T21:58:55.698Z,98846.53
2023-03-08T22:01:27.316Z,98847.41
2023-03-08T22:03:54.499Z,98828.22
2023-03-08T22:06:22.612Z,98830.81
2023-03-08T22:09:01.927Z,98843.06
2023-03-08T22:11:28.789Z,98834.31
2023-03-08T22:13:58.401Z,98836.09
2023-03-08T22:16:27.529Z,98835.19
2023-03-08T22:19:01.461Z,98826.47
2023-03-08T22:21:29.308Z,98828.22
2023-03-08T22:23:59.638Z,98821.22
2023-03-08T22:26:28.125Z,98813.34
2023-03-08T22:28:55.884Z,98807.25
2023-03-08T22:31:26.090Z,98811.63
2023-03-08T22:33:53.461Z,98802.88
2023-03-08T22:36:21.937Z,98808.13
2023-03-08T22:38:48.803Z,98802.00
2023-03-08T22:41:23.657Z,98802.88
2023-03-08T22:43:50.980Z,98799.38
2023-03-08T22:46:21.482Z,98798.50
2023-03-08T22:48:48.954Z,98792.41
2023-03-08T22:51:18.043Z,98798.53
2023-03-08T22:53:44.901Z,98796.78
2023-03-08T22:56:30.160Z,98788.88
2023-03-08T22:58:57.775Z,98794.13
2023-03-08T23:01:25.616Z,98791.50
2023-03-08T23:03:59.252Z,98789.75
2023-03-08T23:06:28.328Z,98789.75
2023-03-08T23:09:01.792Z,98791.53
2023-03-08T23:11:36.198Z,98793.28
2023-03-08T23:14:03.616Z,98802.88
2023-03-08T23:16:30.438Z,98802.00
2023-03-08T23:18:57.352Z,98801.13
2023-03-08T23:21:29.176Z,98799.38
2023-03-08T23:23:57.494Z,98798.50
2023-03-08T23:26:27.278Z,98802.88
2023-03-08T23:28:56.788Z,98804.63
2023-03-08T23:31:27.121Z,98798.53
2023-03-08T23:33:54.900Z,98801.13
2023-03-08T23:36:25.518Z,98800.28
2023-03-08T23:38:53.284Z,98789.81
2023-03-08T23:41:20.699Z,98791.53
2023-03-08T23:43:47.972Z,98793.31
2023-03-08T23:46:19.035Z,98789.84
2023-03-08T23:48:48.134Z,98787.22
2023-03-08T23:51:21.533Z,98784.59
2023-03-08T23:53:50.942Z,98781.13
2023-03-08T23:56:30.440Z,98789.00
2023-03-08T23:58:59.942Z,98786.41
